createdAt,value
2022-09-24T00:02:11.643Z,24.30
2022-09-24T00:04:43.874Z,23.20
2022-09-24T00:07:15.915Z,25.50
2022-09-24T00:09:48.440Z,27.80
2022-09-24T00:12:21.922Z,26.30
2022-09-24T00:14:54.103Z,26.20
2022-09-24T00:17:26.306Z,26.00
2022-09-24T00:19:58.438Z,29.70
2022-09-24T00:22:30.471Z,24.70
2022-09-24T00:25:20.125Z,28.70
2022-09-24T00:27:52.154Z,25.50
2022-09-24T00:30:24.275Z,27.90
2022-09-24T00:32:56.276Z,31.00
2022-09-24T00:35:28.269Z,29.70
2022-09-24T00:38:00.200Z,28.50
2022-09-24T00:40:35.351Z,31.50
2022-09-24T00:43:25.306Z,31.20
2022-09-24T00:46:01.335Z,28.30
2022-09-24T00:48:34.303Z,30.10
2022-09-24T00:51:08.737Z,27.20
2022-09-24T00:53:41.521Z,29.80
2022-09-24T00:56:16.740Z,28.00
2022-09-24T00:58:52.821Z,30.50
2022-09-24T01:01:26.768Z,26.00
2022-09-24T01:04:01.500Z,29.70
2022-09-24T01:06:33.758Z,26.60
2022-09-24T01:09:06.276Z,26.20
2022-09-24T01:11:50.656Z,32.50
2022-09-24T01:14:39.999Z,29.80
2022-09-24T01:17:22.508Z,30.40
2022-09-24T01:20:12.472Z,30.80
2022-09-24T01:23:04.483Z,32.20
2022-09-24T01:25:48.739Z,28.40
2022-09-24T01:28:39.180Z,30.90
2022-09-24T01:31:17.968Z,29.80
2022-09-24T01:33:54.607Z,29.30
2022-09-24T01:36:29.528Z,31.10
2022-09-24T01:39:03.321Z,29.40
2022-09-24T01:41:36.429Z,31.50
2022-09-24T01:44:09.443Z,34.10
2022-09-24T01:46:42.570Z,32.20
2022-09-24T01:49:14.748Z,33.10
2022-09-24T01:51:52.036Z,28.90
2022-09-24T01:54:30.748Z,31.00
2022-09-24T01:57:15.198Z,32.60
2022-09-24T01:59:55.341Z,32.20
2022-09-24T02:02:31.934Z,31.70
2022-09-24T02:05:09.222Z,33.20
2022-09-24T02:07:50.775Z,32.10
2022-09-24T02:10:23.415Z,34.90
2022-09-24T02:13:03.848Z,39.70
2022-09-24T02:15:40.491Z,39.30
2022-09-24T02:18:15.755Z,35.10
2022-09-24T02:20:48.668Z,36.50
2022-09-24T02:23:25.682Z,40.40
2022-09-24T02:26:02.575Z,38.00
2022-09-24T02:28:35.799Z,34.70
2022-09-24T02:31:11.873Z,38.80
2022-09-24T02:34:04.397Z,40.10
2022-09-24T02:36:37.100Z,41.50
2022-09-24T02:39:09.354Z,37.90
2022-09-24T02:41:42.723Z,42.90
2022-09-24T02:44:16.200Z,37.90
2022-09-24T02:46:48.894Z,39.10
2022-09-24T02:49:21.226Z,39.10
2022-09-24T02:51:53.261Z,41.00
2022-09-24T02:54:26.918Z,38.60
2022-09-24T02:56:59.102Z,36.40
2022-09-24T02:59:31.167Z,37.20
2022-09-24T03:02:03.518Z,37.50
2022-09-24T03:04:36.228Z,37.70
2022-09-24T03:07:09.364Z,39.70
2022-09-24T03:09:41.335Z,37.30
2022-09-24T03:12:14.182Z,38.40
2022-09-24T03:14:46.242Z,36.00
2022-09-24T03:17:18.362Z,33.70
2022-09-24T03:19:50.538Z,35.10
2022-09-24T03:22:22.542Z,42.50
2022-09-24T03:24:54.795Z,35.90
2022-09-24T03:27:26.839Z,38.10
2022-09-24T03:30:16.515Z,37.80
2022-09-24T03:32:50.365Z,38.90
2022-09-24T03:35:22.495Z,40.90
2022-09-24T03:37:54.622Z,42.30
2022-09-24T03:40:26.687Z,40.50
2022-09-24T03:42:58.754Z,39.80
2022-09-24T03:45:30.826Z,38.50
2022-09-24T03:48:03.123Z,37.70
2022-09-24T03:50:36.820Z,36.80
2022-09-24T03:53:08.932Z,33.60
2022-09-24T03:55:45.315Z,37.80
2022-09-24T03:58:18.435Z,37.90
2022-09-24T04:00:52.211Z,38.00
2022-09-24T04:03:24.698Z,39.70
2022-09-24T04:05:56.801Z,40.10
2022-09-24T04:08:29.056Z,37.20
2022-09-24T04:11:01.474Z,34.90
2022-09-24T04:13:33.871Z,32.40
2022-09-24T04:16:06.829Z,32.90
2022-09-24T04:18:39.832Z,33.70
2022-09-24T04:21:12.437Z,28.60
2022-09-24T04:23:44.650Z,31.30
2022-09-24T04:26:17.776Z,31.00
2022-09-24T04:28:50.569Z,30.30
2022-09-24T04:31:23.688Z,33.10
2022-09-24T04:33:56.023Z,34.40
2022-09-24T04:36:28.642Z,31.50
2022-09-24T04:39:00.677Z,33.40
2022-09-24T04:41:35.160Z,34.80
2022-09-24T04:44:07.311Z,33.20
2022-09-24T04:46:41.015Z,34.70
2022-09-24T04:49:14.230Z,33.40
2022-09-24T04:51:46.233Z,39.00
2022-09-24T04:54:18.262Z,30.60
2022-09-24T04:56:50.518Z,30.00
2022-09-24T04:59:23.197Z,28.20
2022-09-24T05:01:55.695Z,26.00
2022-09-24T05:04:27.952Z,26.20
2022-09-24T05:06:59.975Z,28.20
2022-09-24T05:09:32.689Z,26.10
2022-09-24T05:12:06.319Z,26.30
2022-09-24T05:14:38.578Z,26.00
2022-09-24T05:17:10.608Z,25.40
2022-09-24T05:19:43.233Z,21.50
2022-09-24T05:22:15.301Z,23.90
2022-09-24T05:24:47.415Z,23.80
2022-09-24T05:27:20.439Z,21.40
2022-09-24T05:29:53.038Z,20.60
2022-09-24T05:32:25.697Z,19.60
2022-09-24T05:34:57.830Z,23.10
2022-09-24T05:37:29.965Z,21.80
2022-09-24T05:40:22.543Z,21.10
2022-09-24T05:43:00.399Z,20.90
2022-09-24T05:45:33.531Z,23.00
2022-09-24T05:48:05.841Z,20.80
2022-09-24T05:50:38.069Z,17.50
2022-09-24T05:53:10.650Z,15.20
2022-09-24T05:55:43.609Z,19.80
2022-09-24T05:58:16.098Z,16.10
2022-09-24T06:00:48.131Z,15.20
2022-09-24T06:03:21.541Z,14.20
2022-09-24T06:05:53.824Z,17.20
2022-09-24T06:08:25.874Z,15.90
2022-09-24T06:11:02.688Z,15.30
2022-09-24T06:13:35.667Z,18.20
2022-09-24T06:16:11.835Z,15.40
2022-09-24T06:18:45.449Z,16.10
2022-09-24T06:21:18.937Z,15.50
2022-09-24T06:23:51.406Z,16.30
2022-09-24T06:26:26.703Z,16.90
2022-09-24T06:29:04.445Z,15.40
2022-09-24T06:31:37.573Z,15.90
2022-09-24T06:34:10.282Z,17.40
2022-09-24T06:36:42.338Z,16.20
2022-09-24T06:39:14.524Z,16.60
2022-09-24T06:41:47.108Z,18.30
2022-09-24T06:44:21.090Z,18.60
2022-09-24T06:46:53.886Z,17.10
2022-09-24T06:49:30.179Z,16.40
2022-09-24T06:52:05.993Z,17.00
2022-09-24T06:54:38.832Z,17.20
2022-09-24T06:57:11.329Z,15.40
2022-09-24T06:59:43.448Z,18.60
2022-09-24T07:02:15.561Z,16.70
2022-09-24T07:04:48.045Z,15.00
2022-09-24T07:07:33.325Z,12.90
2022-09-24T07:10:08.343Z,14.10
2022-09-24T07:12:42.667Z,14.80
2022-09-24T07:15:15.341Z,14.60
2022-09-24T07:17:47.373Z,14.30
2022-09-24T07:20:19.691Z,14.20
2022-09-24T07:22:51.774Z,16.10
2022-09-24T07:25:24.185Z,14.00
2022-09-24T07:27:56.318Z,15.20
2022-09-24T07:30:28.345Z,14.10
2022-09-24T07:33:00.962Z,13.80
2022-09-24T07:35:33.575Z,15.00
2022-09-24T07:38:07.631Z,11.80
2022-09-24T07:40:39.845Z,13.40
2022-09-24T07:43:14.295Z,9.60
2022-09-24T07:45:47.580Z,10.20
2022-09-24T07:48:19.964Z,11.10
2022-09-24T07:50:52.338Z,8.70
2022-09-24T07:53:24.838Z,7.20
2022-09-24T07:56:02.071Z,9.50
2022-09-24T07:58:34.243Z,6.60
2022-09-24T08:01:06.454Z,7.50
2022-09-24T08:03:40.825Z,7.10
2022-09-24T08:06:13.439Z,5.90
2022-09-24T08:08:45.545Z,9.40
2022-09-24T08:11:18.157Z,6.10
2022-09-24T08:13:51.410Z,7.60
2022-09-24T08:16:23.548Z,7.10
2022-09-24T08:18:55.728Z,7.50
2022-09-24T08:21:29.049Z,7.10
2022-09-24T08:24:01.344Z,7.30
2022-09-24T08:26:33.531Z,8.90
2022-09-24T08:29:06.097Z,4.80
2022-09-24T08:31:38.461Z,6.50
2022-09-24T08:34:10.536Z,7.00
2022-09-24T08:36:43.547Z,7.30
2022-09-24T08:39:16.305Z,5.90
2022-09-24T08:41:58.153Z,6.20
2022-09-24T08:44:54.208Z,5.50
2022-09-24T08:47:39.041Z,4.40
2022-09-24T08:50:16.884Z,4.20
2022-09-24T08:53:14.318Z,8.10
2022-09-24T08:55:50.652Z,4.60
2022-09-24T08:58:46.271Z,4.80
2022-09-24T09:01:29.995Z,4.20
2022-09-24T09:04:11.834Z,4.50
2022-09-24T09:06:56.299Z,4.70
2022-09-24T09:09:34.196Z,3.20
2022-09-24T09:12:12.439Z,4.30
2022-09-24T09:14:51.000Z,3.80
2022-09-24T09:17:36.119Z,4.10
2022-09-24T09:20:12.740Z,4.10
2022-09-24T09:22:49.461Z,3.10
2022-09-24T09:25:28.460Z,3.30
2022-09-24T09:28:04.093Z,3.90
2022-09-24T09:30:43.763Z,3.50
2022-09-24T09:33:31.298Z,2.60
2022-09-24T09:36:11.783Z,2.70
2022-09-24T09:38:51.150Z,3.20
2022-09-24T09:41:31.242Z,5.20
2022-09-24T09:44:12.884Z,3.00
2022-09-24T09:46:53.049Z,3.70
2022-09-24T09:49:29.170Z,3.20
2022-09-24T09:52:03.525Z,3.30
2022-09-24T09:54:43.541Z,2.10
2022-09-24T09:57:19.982Z,3.00
2022-09-24T09:59:54.985Z,3.20
2022-09-24T10:02:29.508Z,4.80
2022-09-24T10:05:03.675Z,4.40
2022-09-24T10:07:47.687Z,6.40
2022-09-24T10:10:24.083Z,4.50
2022-09-24T10:15:28.271Z,3.60
2022-09-24T10:18:03.028Z,4.80
2022-09-24T10:20:36.866Z,6.30
2022-09-24T10:23:19.532Z,4.70
2022-09-24T10:26:00.221Z,5.10
2022-09-24T10:28:52.678Z,3.40
2022-09-24T10:31:28.187Z,5.40
2022-09-24T10:34:02.562Z,4.20
2022-09-24T10:36:35.032Z,4.60
2022-09-24T10:39:14.182Z,5.30
2022-09-24T10:41:52.035Z,9.70
2022-09-24T10:44:26.040Z,9.10
2022-09-24T10:47:21.234Z,5.00
2022-09-24T10:50:17.030Z,6.00
2022-09-24T10:52:52.693Z,4.00
2022-09-24T10:55:54.228Z,5.70
2022-09-24T10:58:51.051Z,4.30
2022-09-24T11:01:33.562Z,7.60
2022-09-24T11:04:36.440Z,6.40
2022-09-24T11:07:36.048Z,4.70
2022-09-24T11:10:23.226Z,3.70
2022-09-24T11:16:00.458Z,2.30
2022-09-24T11:18:46.148Z,4.00
2022-09-24T11:21:31.041Z,2.70
2022-09-24T11:24:25.963Z,2.50
2022-09-24T11:27:09.418Z,3.20
2022-09-24T11:29:56.064Z,3.70
2022-09-24T11:32:36.114Z,3.10
2022-09-24T11:35:26.836Z,1.60
2022-09-24T11:38:05.585Z,1.90
2022-09-24T11:41:05.076Z,1.40
2022-09-24T11:43:57.361Z,1.60
2022-09-24T11:46:47.492Z,2.90
2022-09-24T11:49:49.671Z,2.20
2022-09-24T11:52:31.179Z,3.40
2022-09-24T11:55:14.645Z,1.00
2022-09-24T11:57:51.747Z,2.20
2022-09-24T12:00:24.245Z,1.80
2022-09-24T12:03:04.229Z,2.00
2022-09-24T12:05:39.823Z,2.10
2022-09-24T12:08:18.464Z,3.20
2022-09-24T12:10:56.275Z,1.20
2022-09-24T12:13:34.834Z,1.70
2022-09-24T12:16:12.097Z,2.80
2022-09-24T12:18:52.508Z,3.40
2022-09-24T12:21:28.938Z,1.20
2022-09-24T12:24:07.447Z,3.10
2022-09-24T12:26:42.939Z,2.00
2022-09-24T12:29:51.918Z,4.20
2022-09-24T12:32:45.402Z,1.50
2022-09-24T12:35:27.797Z,1.40
2022-09-24T12:38:05.326Z,1.90
2022-09-24T12:41:24.919Z,3.80
2022-09-24T12:44:02.809Z,2.70
2022-09-24T12:46:41.081Z,3.20
2022-09-24T12:49:34.320Z,1.30
2022-09-24T12:52:20.388Z,2.70
2022-09-24T12:55:00.391Z,6.10
2022-09-24T12:57:41.595Z,1.90
2022-09-24T13:00:38.277Z,3.40
2022-09-24T13:03:24.362Z,3.00
2022-09-24T13:06:00.207Z,2.10
2022-09-24T13:08:40.835Z,2.50
2022-09-24T13:11:29.638Z,4.30
2022-09-24T13:14:07.343Z,3.00
2022-09-24T13:16:44.113Z,6.10
2022-09-24T13:22:00.810Z,4.70
2022-09-24T13:24:37.304Z,3.20
2022-09-24T13:27:24.582Z,5.00
2022-09-24T13:32:57.187Z,3.50
2022-09-24T13:35:33.186Z,7.00
2022-09-24T13:38:14.387Z,3.60
2022-09-24T13:40:56.839Z,2.40
2022-09-24T13:43:45.133Z,5.90
2022-09-24T13:46:20.995Z,3.20
2022-09-24T13:48:56.228Z,4.90
2022-09-24T13:51:32.500Z,4.10
2022-09-24T13:54:15.702Z,3.10
2022-09-24T13:57:03.967Z,2.40
2022-09-24T13:59:36.320Z,5.80
2022-09-24T14:02:26.192Z,3.50
2022-09-24T14:05:01.719Z,4.00
2022-09-24T14:07:34.012Z,3.90
2022-09-24T14:10:08.870Z,3.10
2022-09-24T14:12:41.241Z,7.30
2022-09-24T14:15:17.865Z,3.50
2022-09-24T14:18:00.146Z,5.40
2022-09-24T14:20:36.841Z,3.70
2022-09-24T14:23:17.075Z,3.60
2022-09-24T14:25:52.783Z,3.00
2022-09-24T14:28:26.162Z,3.10
2022-09-24T14:30:59.017Z,2.40
2022-09-24T14:33:35.167Z,4.30
2022-09-24T14:36:11.291Z,3.20
2022-09-24T14:38:53.956Z,2.60
2022-09-24T14:41:30.253Z,4.90
2022-09-24T14:44:04.976Z,2.80
2022-09-24T14:46:49.746Z,3.10
2022-09-24T14:49:24.376Z,2.80
2022-09-24T14:51:59.168Z,2.60
2022-09-24T14:54:37.275Z,3.00
2022-09-24T14:57:26.646Z,4.70
2022-09-24T14:59:58.942Z,4.60
2022-09-24T15:02:37.414Z,3.00
2022-09-24T15:05:10.997Z,3.80
2022-09-24T15:07:43.716Z,3.40
2022-09-24T15:10:24.174Z,3.30
2022-09-24T15:12:56.440Z,5.40
2022-09-24T15:15:32.240Z,5.00
2022-09-24T15:18:05.720Z,2.90
2022-09-24T15:20:38.196Z,4.50
2022-09-24T15:23:10.793Z,3.80
2022-09-24T15:25:43.768Z,4.20
2022-09-24T15:28:17.084Z,5.20
2022-09-24T15:30:49.238Z,3.60
2022-09-24T15:33:21.462Z,6.50
2022-09-24T15:35:53.639Z,4.20
2022-09-24T15:38:25.804Z,4.00
2022-09-24T15:40:59.502Z,3.40
2022-09-24T15:43:31.692Z,4.50
2022-09-24T15:46:03.820Z,3.70
2022-09-24T15:48:36.023Z,6.50
2022-09-24T15:51:15.404Z,4.10
2022-09-24T15:53:48.248Z,5.40
2022-09-24T15:56:20.471Z,3.20
2022-09-24T15:58:53.557Z,7.20
2022-09-24T16:01:25.803Z,5.60
2022-09-24T16:03:58.038Z,5.10
2022-09-24T16:06:30.188Z,4.10
2022-09-24T16:09:02.530Z,5.20
2022-09-24T16:11:34.899Z,4.10
2022-09-24T16:14:07.576Z,6.30
2022-09-24T16:16:41.011Z,4.60
2022-09-24T16:19:13.575Z,4.90
2022-09-24T16:21:45.827Z,6.80
2022-09-24T16:24:17.984Z,5.40
2022-09-24T16:26:50.141Z,4.70
2022-09-24T16:29:22.380Z,5.50
2022-09-24T16:31:54.508Z,6.70
2022-09-24T16:34:26.805Z,4.60
2022-09-24T16:36:59.179Z,4.20
2022-09-24T16:39:31.236Z,4.90
2022-09-24T16:42:03.481Z,5.60
2022-09-24T16:44:35.568Z,8.40
2022-09-24T16:47:08.039Z,6.80
2022-09-24T16:49:40.198Z,6.20
2022-09-24T16:52:12.308Z,5.10
2022-09-24T16:54:44.344Z,5.60
2022-09-24T16:57:16.948Z,7.70
2022-09-24T16:59:49.420Z,7.60
2022-09-24T17:02:22.931Z,6.50
2022-09-24T17:04:59.447Z,7.90
2022-09-24T17:07:34.268Z,6.20
2022-09-24T17:10:18.147Z,7.60
2022-09-24T17:12:51.930Z,6.60
2022-09-24T17:15:24.083Z,8.80
2022-09-24T17:17:56.207Z,6.30
2022-09-24T17:20:28.267Z,6.80
2022-09-24T17:23:00.698Z,6.10
2022-09-24T17:25:32.755Z,6.40
2022-09-24T17:28:07.339Z,9.20
2022-09-24T17:30:39.660Z,9.20
2022-09-24T17:33:41.428Z,9.10
2022-09-24T17:36:06.355Z,7.90
2022-09-24T17:38:39.398Z,13.00
2022-09-24T17:41:14.565Z,9.00
2022-09-24T17:43:48.180Z,14.20
2022-09-24T17:46:22.612Z,14.00
2022-09-24T17:48:56.581Z,7.60
2022-09-24T17:51:32.563Z,10.90
2022-09-24T17:54:08.078Z,12.70
2022-09-24T17:56:40.572Z,12.50
2022-09-24T17:59:15.034Z,10.20
2022-09-24T18:01:47.562Z,11.60
2022-09-24T18:04:21.828Z,10.30
2022-09-24T18:06:54.060Z,11.30
2022-09-24T18:09:26.239Z,9.60
2022-09-24T18:11:58.833Z,10.30
2022-09-24T18:14:31.374Z,13.80
2022-09-24T18:17:04.820Z,9.90
2022-09-24T18:19:37.141Z,9.70
2022-09-24T18:22:09.269Z,12.50
2022-09-24T18:24:42.084Z,13.10
2022-09-24T18:27:16.106Z,11.80
2022-09-24T18:29:48.261Z,10.80
2022-09-24T18:32:24.151Z,13.40
2022-09-24T18:34:56.344Z,11.60
2022-09-24T18:37:28.889Z,9.50
2022-09-24T18:40:01.699Z,10.10
2022-09-24T18:42:34.983Z,12.10
2022-09-24T18:45:08.461Z,10.70
2022-09-24T18:47:40.674Z,11.60
2022-09-24T18:50:13.194Z,11.10
2022-09-24T18:52:45.373Z,10.60
2022-09-24T18:55:17.513Z,11.30
2022-09-24T18:57:49.664Z,14.60
2022-09-24T19:00:39.289Z,11.10
2022-09-24T19:03:11.340Z,12.00
2022-09-24T19:05:43.691Z,12.30
2022-09-24T19:08:16.116Z,16.10
2022-09-24T19:10:49.063Z,19.80
2022-09-24T19:13:25.990Z,17.40
2022-09-24T19:15:58.664Z,13.50
2022-09-24T19:18:31.243Z,18.40
2022-09-24T19:21:03.936Z,18.60
2022-09-24T19:23:38.519Z,20.10
2022-09-24T19:26:12.037Z,19.70
2022-09-24T19:28:45.533Z,15.30
2022-09-24T19:31:20.284Z,19.70
2022-09-24T19:33:53.588Z,15.30
2022-09-24T19:36:25.685Z,22.30
2022-09-24T19:38:58.047Z,22.30
2022-09-24T19:41:30.423Z,20.50
2022-09-24T19:44:08.273Z,20.10
2022-09-24T19:46:41.368Z,17.50
2022-09-24T19:49:14.572Z,18.30
2022-09-24T19:51:46.973Z,21.00
2022-09-24T19:54:19.156Z,23.20
2022-09-24T19:56:51.151Z,19.40
2022-09-24T19:59:25.045Z,16.00
2022-09-24T20:01:57.155Z,16.70
2022-09-24T20:04:29.379Z,18.50
2022-09-24T20:07:05.799Z,16.10
2022-09-24T20:09:38.568Z,17.00
2022-09-24T20:12:19.832Z,20.30
2022-09-24T20:14:51.869Z,20.10
2022-09-24T20:17:23.925Z,18.10
2022-09-24T20:19:56.551Z,21.70
2022-09-24T20:22:28.712Z,16.90
2022-09-24T20:25:00.755Z,21.10
2022-09-24T20:27:51.465Z,21.30
2022-09-24T20:30:24.242Z,18.80
2022-09-24T20:32:56.743Z,19.90
2022-09-24T20:35:29.032Z,20.40
2022-09-24T20:38:01.574Z,16.70
2022-09-24T20:40:36.566Z,15.70
2022-09-24T20:43:09.592Z,15.90
2022-09-24T20:45:43.485Z,17.30
2022-09-24T20:48:15.612Z,15.00
2022-09-24T20:50:47.820Z,15.50
2022-09-24T20:53:20.454Z,17.90
2022-09-24T20:55:55.777Z,16.70
2022-09-24T20:58:27.899Z,16.40
2022-09-24T21:01:00.183Z,14.40
2022-09-24T21:03:49.946Z,18.40
2022-09-24T21:06:23.698Z,15.70
2022-09-24T21:08:56.131Z,14.70
2022-09-24T21:11:29.056Z,16.70
2022-09-24T21:14:03.102Z,18.80
2022-09-24T21:16:36.154Z,16.20
2022-09-24T21:19:08.493Z,18.80
2022-09-24T21:21:40.977Z,16.10
2022-09-24T21:24:16.474Z,14.70
2022-09-24T21:26:49.183Z,15.40
2022-09-24T21:29:22.850Z,16.20
2022-09-24T21:31:54.961Z,15.70
2022-09-24T21:34:27.984Z,19.90
2022-09-24T21:37:00.143Z,15.20
2022-09-24T21:39:32.244Z,14.90
2022-09-24T21:42:05.521Z,15.60
2022-09-24T21:44:38.094Z,12.40
2022-09-24T21:47:10.415Z,11.90
2022-09-24T21:49:42.457Z,14.20
2022-09-24T21:52:15.360Z,13.20
2022-09-24T21:54:47.426Z,10.40
2022-09-24T21:57:19.445Z,12.30
2022-09-24T22:00:01.022Z,11.80
2022-09-24T22:02:33.811Z,11.50
2022-09-24T22:05:06.562Z,11.10
2022-09-24T22:07:39.021Z,12.60
2022-09-24T22:10:12.448Z,11.50
2022-09-24T22:12:46.697Z,10.50
2022-09-24T22:15:18.904Z,9.70
2022-09-24T22:17:51.708Z,11.80
2022-09-24T22:20:23.863Z,14.60
2022-09-24T22:22:56.036Z,13.40
2022-09-24T22:25:28.421Z,11.00
2022-09-24T22:28:00.825Z,12.50
2022-09-24T22:30:33.180Z,15.10
2022-09-24T22:33:05.298Z,13.30
2022-09-24T22:35:49.943Z,12.60
2022-09-24T22:38:23.022Z,13.70
2022-09-24T22:40:55.080Z,13.40
2022-09-24T22:43:27.248Z,9.90
2022-09-24T22:46:01.439Z,13.80
2022-09-24T22:48:34.242Z,12.10
2022-09-24T22:51:07.797Z,13.20
2022-09-24T22:53:41.523Z,12.70
2022-09-24T22:56:16.890Z,10.90
2022-09-24T22:58:54.421Z,11.10
2022-09-24T23:01:28.363Z,10.50
2022-09-24T23:04:00.942Z,11.60
2022-09-24T23:06:34.747Z,9.30
2022-09-24T23:09:06.919Z,12.20
2022-09-24T23:11:39.357Z,11.40
2022-09-24T23:14:15.860Z,11.40
2022-09-24T23:16:48.346Z,13.30
2022-09-24T23:19:21.504Z,11.80
2022-09-24T23:21:54.294Z,12.50
2022-09-24T23:24:26.518Z,14.20
2022-09-24T23:26:58.492Z,14.60
2022-09-24T23:29:30.969Z,16.40
2022-09-24T23:32:03.292Z,15.60
2022-09-24T23:34:35.396Z,17.90
2022-09-24T23:37:07.442Z,15.30
2022-09-24T23:39:40.032Z,16.60
2022-09-24T23:42:12.209Z,15.80
2022-09-24T23:44:45.813Z,16.00
2022-09-24T23:47:18.666Z,16.50
2022-09-24T23:49:50.744Z,18.50
2022-09-24T23:52:22.818Z,22.20
2022-09-24T23:54:54.949Z,16.70
2022-09-24T23:57:27.208Z,17.40
2022-09-24T23:59:59.225Z,21.10
